createdAt,value
2022-12-18T00:01:25.880Z,7.35
2022-12-18T00:03:54.144Z,7.72
2022-12-18T00:06:21.931Z,8.30
2022-12-18T00:08:49.023Z,8.77
2022-12-18T00:11:18.676Z,8.48
2022-12-18T00:13:46.223Z,8.65
2022-12-18T00:16:15.613Z,8.55
2022-12-18T00:18:43.391Z,8.77
2022-12-18T00:21:12.884Z,8.98
2022-12-18T00:23:42.090Z,8.95
2022-12-18T00:26:16.128Z,8.05
2022-12-18T00:28:44.095Z,8.52
2022-12-18T00:31:13.975Z,8.38
2022-12-18T00:33:41.130Z,9.60
2022-12-18T00:36:42.535Z,8.25
2022-12-18T00:39:11.264Z,8.73
2022-12-18T00:41:56.538Z,8.02
2022-12-18T00:44:23.243Z,9.25
2022-12-18T00:46:51.341Z,8.82
2022-12-18T00:49:19.761Z,9.45
2022-12-18T00:51:47.042Z,8.40
2022-12-18T00:54:14.196Z,8.68
2022-12-18T00:56:48.217Z,8.98
2022-12-18T00:59:15.299Z,8.95
2022-12-18T01:01:42.315Z,9.48
2022-12-18T01:04:09.239Z,8.13
2022-12-18T01:06:35.922Z,9.60
2022-12-18T01:09:03.071Z,9.45
2022-12-18T01:11:29.807Z,9.07
2022-12-18T01:13:56.576Z,9.35
2022-12-18T01:16:23.693Z,9.55
2022-12-18T01:18:54.711Z,9.15
2022-12-18T01:21:22.764Z,9.60
2022-12-18T01:23:53.762Z,8.90
2022-12-18T01:26:20.708Z,8.75
2022-12-18T01:28:47.429Z,10.27
2022-12-18T01:31:16.941Z,9.68
2022-12-18T01:33:44.085Z,9.07
2022-12-18T01:36:17.436Z,10.35
2022-12-18T01:41:11.352Z,9.13
2022-12-18T01:43:51.295Z,10.73
2022-12-18T01:46:21.754Z,9.82
2022-12-18T01:48:51.635Z,9.32
2022-12-18T01:51:18.577Z,10.02
2022-12-18T01:53:47.017Z,9.93
2022-12-18T01:56:16.976Z,10.55
2022-12-18T01:58:59.336Z,9.85
2022-12-18T02:01:26.781Z,9.07
2022-12-18T02:03:54.003Z,9.85
2022-12-18T02:06:34.615Z,10.52
2022-12-18T02:09:14.773Z,10.13
2022-12-18T02:12:06.131Z,10.07
2022-12-18T02:14:38.662Z,10.48
2022-12-18T02:17:43.963Z,10.75
2022-12-18T02:20:28.359Z,9.18
2022-12-18T02:23:37.704Z,10.65
2022-12-18T02:26:20.115Z,10.20
2022-12-18T02:29:18.410Z,9.73
2022-12-18T02:31:54.152Z,9.65
2022-12-18T02:34:25.707Z,10.70
2022-12-18T02:36:55.236Z,9.85
2022-12-18T02:39:24.565Z,9.25
2022-12-18T02:41:59.800Z,10.57
2022-12-18T02:44:26.790Z,11.18
2022-12-18T02:46:55.315Z,10.30
2022-12-18T02:49:41.085Z,10.13
2022-12-18T02:52:34.332Z,10.68
2022-12-18T02:55:21.880Z,10.75
2022-12-18T02:58:11.934Z,10.40
2022-12-18T03:00:44.109Z,11.50
2022-12-18T03:03:20.507Z,10.07
2022-12-18T03:05:57.523Z,10.95
2022-12-18T03:08:30.328Z,10.55
2022-12-18T03:11:07.033Z,12.35
2022-12-18T03:13:48.788Z,11.20
2022-12-18T03:16:29.281Z,11.27
2022-12-18T03:19:07.619Z,10.25
2022-12-18T03:21:55.168Z,10.80
2022-12-18T03:24:27.278Z,10.48
2022-12-18T03:26:58.624Z,10.00
2022-12-18T03:29:33.947Z,11.63
2022-12-18T03:32:20.732Z,10.82
2022-12-18T03:34:51.831Z,10.50
2022-12-18T03:37:21.545Z,10.73
2022-12-18T03:39:48.334Z,10.90
2022-12-18T03:42:31.051Z,9.93
2022-12-18T03:45:27.075Z,11.82
2022-12-18T03:48:09.648Z,10.80
2022-12-18T03:50:48.726Z,10.90
2022-12-18T03:53:46.661Z,9.85
2022-12-18T03:56:17.176Z,10.38
2022-12-18T03:58:46.652Z,10.65
2022-12-18T04:01:20.937Z,9.98
2022-12-18T04:03:50.586Z,10.35
2022-12-18T04:06:19.964Z,10.13
2022-12-18T04:08:47.896Z,9.10
2022-12-18T04:11:18.170Z,9.20
2022-12-18T04:13:46.584Z,9.23
2022-12-18T04:16:19.879Z,9.80
2022-12-18T04:18:49.827Z,9.05
2022-12-18T04:21:16.828Z,9.23
2022-12-18T04:23:43.811Z,8.98
2022-12-18T04:26:11.293Z,8.90
2022-12-18T04:29:04.302Z,9.02
2022-12-18T04:31:31.095Z,9.52
2022-12-18T04:33:58.396Z,9.70
2022-12-18T04:36:27.045Z,9.35
2022-12-18T04:38:54.320Z,9.18
2022-12-18T04:41:21.538Z,9.32
2022-12-18T04:43:49.505Z,9.52
2022-12-18T04:46:16.233Z,8.35
2022-12-18T04:48:42.925Z,8.75
2022-12-18T04:51:09.637Z,9.25
2022-12-18T04:53:36.625Z,9.00
2022-12-18T04:56:15.663Z,8.93
2022-12-18T04:58:44.434Z,8.65
2022-12-18T05:01:12.911Z,8.15
2022-12-18T05:03:40.375Z,9.18
2022-12-18T05:06:08.197Z,9.50
2022-12-18T05:08:35.181Z,8.95
2022-12-18T05:11:07.777Z,9.38
2022-12-18T05:13:35.864Z,9.60
2022-12-18T05:16:03.437Z,10.00
2022-12-18T05:18:30.641Z,9.00
2022-12-18T05:20:57.433Z,9.50
2022-12-18T05:23:25.990Z,10.25
2022-12-18T05:26:01.348Z,8.88
2022-12-18T05:28:30.263Z,10.35
2022-12-18T05:30:59.257Z,9.10
2022-12-18T05:33:27.934Z,8.80
2022-12-18T05:35:56.520Z,8.23
2022-12-18T05:38:24.708Z,9.18
2022-12-18T05:40:52.571Z,9.10
2022-12-18T05:43:21.642Z,9.13
2022-12-18T05:45:49.522Z,8.60
2022-12-18T05:48:17.168Z,7.85
2022-12-18T05:50:49.240Z,8.30
2022-12-18T05:53:18.759Z,8.50
2022-12-18T05:55:46.431Z,7.88
2022-12-18T05:58:14.049Z,8.93
2022-12-18T06:00:45.354Z,7.28
2022-12-18T06:03:13.564Z,7.15
2022-12-18T06:05:43.601Z,6.80
2022-12-18T06:08:11.433Z,7.30
2022-12-18T06:10:38.459Z,6.25
2022-12-18T06:13:06.060Z,7.75
2022-12-18T06:15:33.203Z,6.57
2022-12-18T06:18:01.747Z,6.28
2022-12-18T06:20:33.621Z,7.35
2022-12-18T06:23:01.229Z,7.32
2022-12-18T06:25:27.964Z,6.82
2022-12-18T06:27:54.775Z,7.25
2022-12-18T06:30:21.590Z,6.18
2022-12-18T06:32:54.664Z,7.03
2022-12-18T06:35:23.509Z,6.88
2022-12-18T06:37:50.295Z,6.53
2022-12-18T06:40:17.616Z,6.90
2022-12-18T06:42:44.337Z,7.57
2022-12-18T06:45:12.283Z,6.00
2022-12-18T06:47:39.033Z,6.82
2022-12-18T06:50:06.617Z,6.47
2022-12-18T06:52:34.415Z,7.63
2022-12-18T06:55:01.493Z,6.60
2022-12-18T06:57:28.259Z,5.47
2022-12-18T06:59:55.121Z,6.65
2022-12-18T07:02:21.862Z,5.90
2022-12-18T07:04:51.784Z,6.60
2022-12-18T07:07:18.777Z,7.53
2022-12-18T07:09:45.460Z,7.35
2022-12-18T07:12:12.185Z,6.55
2022-12-18T07:14:38.845Z,7.07
2022-12-18T07:17:06.513Z,7.75
2022-12-18T07:19:33.688Z,6.38
2022-12-18T07:22:00.526Z,6.40
2022-12-18T07:24:27.397Z,7.00
2022-12-18T07:26:54.128Z,6.80
2022-12-18T07:29:20.889Z,6.95
2022-12-18T07:31:47.702Z,6.55
2022-12-18T07:34:16.019Z,5.65
2022-12-18T07:36:43.134Z,6.65
2022-12-18T07:39:11.536Z,5.43
2022-12-18T07:41:41.308Z,6.85
2022-12-18T07:44:12.266Z,6.43
2022-12-18T07:46:39.149Z,6.95
2022-12-18T07:49:05.824Z,6.03
2022-12-18T07:51:32.545Z,5.85
2022-12-18T07:53:59.215Z,5.78
2022-12-18T07:56:28.205Z,5.93
2022-12-18T07:58:56.023Z,6.10
2022-12-18T08:01:22.842Z,5.78
2022-12-18T08:03:51.216Z,5.50
2022-12-18T08:06:19.660Z,6.22
2022-12-18T08:08:53.371Z,6.20
2022-12-18T08:11:20.368Z,5.40
2022-12-18T08:13:48.370Z,7.05
2022-12-18T08:16:16.115Z,6.28
2022-12-18T08:18:42.886Z,6.57
2022-12-18T08:21:12.077Z,6.30
2022-12-18T08:23:43.709Z,7.18
2022-12-18T08:26:12.072Z,6.53
2022-12-18T08:28:38.914Z,6.57
2022-12-18T08:31:06.177Z,6.13
2022-12-18T08:33:33.447Z,6.88
2022-12-18T08:36:01.217Z,5.60
2022-12-18T08:38:27.956Z,6.05
2022-12-18T08:41:06.509Z,6.38
2022-12-18T08:43:52.276Z,5.65
2022-12-18T08:46:20.745Z,6.65
2022-12-18T08:48:48.300Z,5.43
2022-12-18T08:51:17.305Z,5.85
2022-12-18T08:53:45.411Z,6.20
2022-12-18T08:56:13.437Z,5.57
2022-12-18T08:58:40.657Z,5.32
2022-12-18T09:01:10.200Z,5.60
2022-12-18T09:03:37.494Z,5.68
2022-12-18T09:06:04.784Z,5.18
2022-12-18T09:08:31.739Z,5.40
2022-12-18T09:10:58.571Z,5.30
2022-12-18T09:13:25.372Z,4.75
2022-12-18T09:15:54.047Z,5.57
2022-12-18T09:18:22.765Z,5.50
2022-12-18T09:20:51.070Z,4.75
2022-12-18T09:23:17.806Z,4.20
2022-12-18T09:25:44.464Z,5.13
2022-12-18T09:28:17.803Z,4.88
2022-12-18T09:33:17.542Z,4.95
2022-12-18T09:35:45.812Z,4.47
2022-12-18T09:38:17.856Z,3.58
2022-12-18T09:40:53.892Z,4.30
2022-12-18T09:43:36.813Z,4.70
2022-12-18T09:46:08.634Z,4.38
2022-12-18T09:48:43.578Z,4.80
2022-12-18T09:51:33.456Z,4.82
2022-12-18T09:54:11.534Z,4.55
2022-12-18T09:56:42.916Z,4.07
2022-12-18T09:59:22.020Z,5.13
2022-12-18T10:01:48.911Z,5.20
2022-12-18T10:04:15.911Z,4.85
2022-12-18T10:07:09.444Z,4.40
2022-12-18T10:09:43.685Z,4.38
2022-12-18T10:12:27.425Z,4.43
2022-12-18T10:15:27.036Z,4.55
2022-12-18T10:18:07.255Z,3.85
2022-12-18T10:20:45.992Z,3.95
2022-12-18T10:23:48.392Z,4.40
2022-12-18T10:26:15.587Z,4.53
2022-12-18T10:28:44.655Z,4.53
2022-12-18T10:31:24.691Z,4.30
2022-12-18T10:33:54.176Z,4.18
2022-12-18T10:36:21.927Z,4.28
2022-12-18T10:38:50.580Z,4.63
2022-12-18T10:41:22.867Z,3.88
2022-12-18T10:44:09.543Z,3.63
2022-12-18T10:46:36.426Z,3.95
2022-12-18T10:49:03.354Z,4.32
2022-12-18T10:51:38.325Z,4.13
2022-12-18T10:54:18.030Z,4.57
2022-12-18T10:56:45.254Z,4.68
2022-12-18T10:59:15.822Z,4.25
2022-12-18T11:01:59.434Z,4.75
2022-12-18T11:04:28.805Z,4.03
2022-12-18T11:06:56.467Z,4.00
2022-12-18T11:09:25.764Z,4.18
2022-12-18T11:11:58.055Z,3.58
2022-12-18T11:14:30.706Z,3.42
2022-12-18T11:19:54.999Z,3.58
2022-12-18T11:22:41.092Z,3.25
2022-12-18T11:25:36.135Z,3.30
2022-12-18T11:28:05.532Z,2.80
2022-12-18T11:30:35.211Z,3.17
2022-12-18T11:33:11.229Z,3.38
2022-12-18T11:36:04.586Z,3.38
2022-12-18T11:38:35.606Z,3.17
2022-12-18T11:41:23.520Z,3.33
2022-12-18T11:43:59.577Z,2.40
2022-12-18T11:46:40.847Z,3.72
2022-12-18T11:49:16.424Z,2.95
2022-12-18T11:52:04.380Z,2.92
2022-12-18T11:54:31.153Z,4.10
2022-12-18T11:57:41.168Z,3.35
2022-12-18T12:00:21.127Z,2.78
2022-12-18T12:03:07.890Z,2.80
2022-12-18T12:05:51.832Z,3.20
2022-12-18T12:08:18.496Z,3.67
2022-12-18T12:11:11.257Z,3.60
2022-12-18T12:14:08.042Z,3.45
2022-12-18T12:17:22.859Z,4.18
2022-12-18T12:20:17.339Z,3.35
2022-12-18T12:23:09.550Z,3.65
2022-12-18T12:25:45.594Z,3.10
2022-12-18T12:28:44.520Z,3.40
2022-12-18T12:31:12.527Z,3.75
2022-12-18T12:33:57.382Z,3.15
2022-12-18T12:36:32.321Z,3.15
2022-12-18T12:39:04.127Z,3.10
2022-12-18T12:41:52.901Z,2.97
2022-12-18T12:44:27.083Z,3.08
2022-12-18T12:46:59.408Z,3.00
2022-12-18T12:49:29.874Z,3.47
2022-12-18T12:52:32.001Z,2.97
2022-12-18T12:54:59.724Z,3.30
2022-12-18T12:57:37.561Z,3.67
2022-12-18T13:00:12.538Z,3.38
2022-12-18T13:03:13.082Z,3.97
2022-12-18T13:06:04.113Z,3.90
2022-12-18T13:08:51.563Z,4.82
2022-12-18T13:11:59.751Z,4.47
2022-12-18T13:14:36.486Z,5.45
2022-12-18T13:17:21.834Z,6.07
2022-12-18T13:20:10.929Z,4.55
2022-12-18T13:22:41.525Z,4.55
2022-12-18T13:25:30.463Z,5.13
2022-12-18T13:28:15.377Z,4.47
2022-12-18T13:30:51.747Z,4.82
2022-12-18T13:33:23.278Z,5.22
2022-12-18T13:35:54.640Z,3.95
2022-12-18T13:38:21.628Z,4.20
2022-12-18T13:40:48.380Z,2.92
2022-12-18T13:43:21.292Z,4.00
2022-12-18T13:46:05.346Z,3.20
2022-12-18T13:48:38.978Z,5.95
2022-12-18T13:51:12.027Z,2.90
2022-12-18T13:54:06.973Z,3.97
2022-12-18T13:56:35.101Z,3.55
2022-12-18T13:59:19.254Z,3.58
2022-12-18T14:01:58.385Z,3.35
2022-12-18T14:04:33.824Z,4.18
2022-12-18T14:07:16.006Z,2.85
2022-12-18T14:09:47.555Z,3.05
2022-12-18T14:12:45.920Z,3.00
2022-12-18T14:15:34.717Z,3.35
2022-12-18T14:18:15.373Z,3.00
2022-12-18T14:20:52.872Z,3.92
2022-12-18T14:23:42.090Z,3.30
2022-12-18T14:26:24.196Z,2.80
2022-12-18T14:28:51.184Z,3.30
2022-12-18T14:31:27.314Z,2.97
2022-12-18T14:33:54.862Z,2.63
2022-12-18T14:36:27.183Z,3.78
2022-12-18T14:38:59.038Z,2.50
2022-12-18T14:41:27.458Z,3.00
2022-12-18T14:43:55.474Z,3.10
2022-12-18T14:46:42.399Z,2.72
2022-12-18T14:49:30.179Z,2.92
2022-12-18T14:52:23.398Z,2.80
2022-12-18T14:54:50.262Z,2.17
2022-12-18T14:57:24.516Z,3.20
2022-12-18T14:59:51.855Z,2.95
2022-12-18T15:02:27.584Z,2.58
2022-12-18T15:05:14.283Z,2.58
2022-12-18T15:07:42.870Z,2.72
2022-12-18T15:10:12.855Z,2.55
2022-12-18T15:13:21.464Z,2.90
2022-12-18T15:15:49.208Z,3.15
2022-12-18T15:18:19.075Z,2.40
2022-12-18T15:20:54.106Z,2.47
2022-12-18T15:23:24.228Z,2.72
2022-12-18T15:26:04.084Z,2.70
2022-12-18T15:28:48.920Z,2.78
2022-12-18T15:31:16.204Z,2.70
2022-12-18T15:33:53.976Z,2.90
2022-12-18T15:36:26.877Z,2.78
2022-12-18T15:38:56.045Z,2.55
2022-12-18T15:41:36.213Z,2.35
2022-12-18T15:44:04.223Z,2.60
2022-12-18T15:46:31.911Z,2.55
2022-12-18T15:49:02.275Z,2.42
2022-12-18T15:51:35.414Z,2.20
2022-12-18T15:54:04.977Z,3.30
2022-12-18T15:56:50.373Z,2.58
2022-12-18T15:59:21.223Z,2.47
2022-12-18T16:01:51.605Z,3.10
2022-12-18T16:04:22.889Z,2.92
2022-12-18T16:09:37.720Z,2.30
2022-12-18T16:12:04.827Z,2.92
2022-12-18T16:14:33.200Z,2.28
2022-12-18T16:17:02.234Z,2.78
2022-12-18T16:19:30.070Z,3.00
2022-12-18T16:21:59.336Z,2.90
2022-12-18T16:24:31.519Z,3.00
2022-12-18T16:27:00.252Z,2.80
2022-12-18T16:29:29.326Z,3.03
2022-12-18T16:32:00.688Z,3.10
2022-12-18T16:34:35.400Z,3.58
2022-12-18T16:37:08.405Z,3.35
2022-12-18T16:39:36.153Z,2.60
2022-12-18T16:42:05.938Z,2.17
2022-12-18T16:44:34.435Z,2.70
2022-12-18T16:47:02.961Z,2.67
2022-12-18T16:49:30.602Z,2.53
2022-12-18T16:51:57.372Z,2.40
2022-12-18T16:54:24.207Z,2.72
2022-12-18T16:56:52.285Z,3.20
2022-12-18T16:59:19.310Z,2.78
2022-12-18T17:01:47.095Z,2.80
2022-12-18T17:04:14.564Z,2.85
2022-12-18T17:06:44.030Z,3.00
2022-12-18T17:09:16.061Z,2.30
2022-12-18T17:11:43.341Z,1.95
2022-12-18T17:14:15.561Z,2.70
2022-12-18T17:16:42.701Z,2.17
2022-12-18T17:19:16.614Z,2.40
2022-12-18T17:21:45.406Z,2.28
2022-12-18T17:24:12.155Z,2.33
2022-12-18T17:26:38.980Z,2.22
2022-12-18T17:29:06.174Z,2.17
2022-12-18T17:31:33.232Z,2.78
2022-12-18T17:34:03.822Z,2.75
2022-12-18T17:36:32.300Z,2.60
2022-12-18T17:39:01.755Z,2.35
2022-12-18T17:41:29.992Z,2.58
2022-12-18T17:43:59.402Z,2.10
2022-12-18T17:46:27.534Z,3.03
2022-12-18T17:48:58.580Z,2.47
2022-12-18T17:51:25.821Z,1.98
2022-12-18T17:53:52.922Z,2.47
2022-12-18T17:56:22.031Z,2.63
2022-12-18T17:58:50.281Z,2.65
2022-12-18T18:01:20.333Z,2.42
2022-12-18T18:03:48.324Z,2.72
2022-12-18T18:06:18.680Z,2.53
2022-12-18T18:08:45.448Z,2.35
2022-12-18T18:11:33.851Z,2.40
2022-12-18T18:14:05.145Z,2.47
2022-12-18T18:16:35.445Z,2.40
2022-12-18T18:19:05.392Z,2.33
2022-12-18T18:21:32.743Z,2.22
2022-12-18T18:24:03.625Z,3.05
2022-12-18T18:26:34.895Z,2.30
2022-12-18T18:29:03.339Z,2.22
2022-12-18T18:31:34.786Z,2.40
2022-12-18T18:34:07.432Z,2.33
2022-12-18T18:36:34.886Z,2.33
2022-12-18T18:39:02.175Z,2.70
2022-12-18T18:41:30.408Z,2.20
2022-12-18T18:43:58.406Z,2.47
2022-12-18T18:46:25.850Z,3.08
2022-12-18T18:48:53.012Z,3.08
2022-12-18T18:51:21.328Z,2.95
2022-12-18T18:53:50.227Z,2.92
2022-12-18T18:56:56.313Z,2.70
2022-12-18T18:59:06.887Z,3.20
2022-12-18T19:01:37.883Z,2.97
2022-12-18T19:04:05.310Z,3.13
2022-12-18T19:06:32.453Z,2.95
2022-12-18T19:09:02.273Z,2.83
2022-12-18T19:11:49.032Z,4.28
2022-12-18T19:14:16.426Z,3.45
2022-12-18T19:16:45.386Z,3.42
2022-12-18T19:19:13.283Z,3.42
2022-12-18T19:21:40.230Z,3.15
2022-12-18T19:24:07.372Z,2.90
2022-12-18T19:26:34.318Z,3.53
2022-12-18T19:29:06.814Z,3.17
2022-12-18T19:31:36.374Z,2.97
2022-12-18T19:34:14.744Z,2.75
2022-12-18T19:37:01.867Z,2.83
2022-12-18T19:39:28.638Z,2.60
2022-12-18T19:41:56.834Z,3.30
2022-12-18T19:44:23.628Z,2.50
2022-12-18T19:46:51.578Z,3.00
2022-12-18T19:49:21.040Z,3.60
2022-12-18T19:51:47.791Z,3.40
2022-12-18T19:54:17.829Z,3.70
2022-12-18T19:56:45.808Z,3.47
2022-12-18T19:59:13.135Z,2.97
2022-12-18T20:01:40.270Z,3.10
2022-12-18T20:04:07.202Z,3.03
2022-12-18T20:06:48.261Z,3.13
2022-12-18T20:09:15.696Z,2.95
2022-12-18T20:11:43.355Z,3.25
2022-12-18T20:14:11.231Z,2.90
2022-12-18T20:16:38.170Z,2.92
2022-12-18T20:19:05.778Z,3.85
2022-12-18T20:21:33.375Z,3.67
2022-12-18T20:24:01.216Z,3.15
2022-12-18T20:26:28.561Z,3.13
2022-12-18T20:28:55.512Z,4.07
2022-12-18T20:31:22.971Z,3.28
2022-12-18T20:33:51.023Z,2.70
2022-12-18T20:36:24.594Z,3.28
2022-12-18T20:38:58.056Z,4.18
2022-12-18T20:41:37.473Z,3.38
2022-12-18T20:44:23.056Z,3.10
2022-12-18T20:46:56.391Z,3.25
2022-12-18T20:49:25.047Z,3.38
2022-12-18T20:51:53.402Z,3.70
2022-12-18T20:54:21.373Z,3.90
2022-12-18T20:56:48.220Z,4.05
2022-12-18T20:59:15.204Z,3.20
2022-12-18T21:01:47.432Z,3.03
2022-12-18T21:04:18.035Z,3.75
2022-12-18T21:06:51.280Z,3.58
2022-12-18T21:09:20.427Z,3.28
2022-12-18T21:12:05.952Z,3.78
2022-12-18T21:14:32.750Z,3.47
2022-12-18T21:17:03.054Z,3.92
2022-12-18T21:19:30.175Z,4.03
2022-12-18T21:21:58.014Z,3.92
2022-12-18T21:24:25.095Z,3.50
2022-12-18T21:26:51.844Z,3.78
2022-12-18T21:29:23.837Z,3.58
2022-12-18T21:31:53.326Z,3.83
2022-12-18T21:34:19.995Z,3.38
2022-12-18T21:36:47.655Z,3.72
2022-12-18T21:39:15.856Z,3.50
2022-12-18T21:42:01.634Z,3.67
2022-12-18T21:44:28.731Z,4.47
2022-12-18T21:47:02.464Z,4.45
2022-12-18T21:49:36.217Z,4.68
2022-12-18T21:52:02.952Z,3.53
2022-12-18T21:54:30.144Z,4.03
2022-12-18T21:56:58.398Z,3.78
2022-12-18T21:59:35.203Z,4.47
2022-12-18T22:02:08.390Z,4.60
2022-12-18T22:04:35.308Z,4.03
2022-12-18T22:07:03.209Z,3.95
2022-12-18T22:09:29.893Z,4.78
2022-12-18T22:11:56.692Z,3.50
2022-12-18T22:14:23.785Z,4.47
2022-12-18T22:16:52.323Z,3.88
2022-12-18T22:19:20.244Z,4.25
2022-12-18T22:21:48.803Z,4.05
2022-12-18T22:24:23.740Z,4.75
2022-12-18T22:26:52.905Z,4.18
2022-12-18T22:29:55.843Z,4.80
2022-12-18T22:32:30.751Z,3.92
2022-12-18T22:35:05.771Z,4.75
2022-12-18T22:37:34.108Z,4.05
2022-12-18T22:40:03.237Z,4.88
2022-12-18T22:42:30.886Z,4.85
2022-12-18T22:44:57.771Z,4.30
2022-12-18T22:47:29.356Z,4.90
2022-12-18T22:49:56.976Z,4.57
2022-12-18T22:52:23.847Z,4.38
2022-12-18T22:54:53.242Z,4.13
2022-12-18T22:57:21.670Z,4.20
2022-12-18T22:59:49.165Z,4.60
2022-12-18T23:02:17.670Z,4.22
2022-12-18T23:04:45.066Z,4.75
2022-12-18T23:07:12.605Z,4.43
2022-12-18T23:09:39.805Z,4.38
2022-12-18T23:12:07.286Z,4.38
2022-12-18T23:14:33.926Z,4.80
2022-12-18T23:17:00.569Z,4.55
2022-12-18T23:19:27.320Z,4.00
2022-12-18T23:21:54.784Z,4.07
2022-12-18T23:24:23.755Z,4.57
2022-12-18T23:26:50.570Z,4.55
2022-12-18T23:29:17.209Z,4.35
2022-12-18T23:31:44.196Z,3.92
2022-12-18T23:34:13.717Z,4.43
2022-12-18T23:36:45.529Z,4.57
2022-12-18T23:39:29.065Z,4.25
2022-12-18T23:42:00.348Z,4.57
2022-12-18T23:44:27.818Z,4.93
2022-12-18T23:46:55.134Z,5.07
2022-12-18T23:49:22.326Z,5.15
2022-12-18T23:51:49.489Z,4.57
2022-12-18T23:54:16.282Z,3.80
2022-12-18T23:56:43.000Z,4.32
2022-12-18T23:59:09.984Z,5.05
